createdAt,value
2018-10-03T00:00:02.916Z,0
2018-10-03T00:01:13.111Z,0
2018-10-03T00:02:23.233Z,0
2018-10-03T00:03:33.421Z,0
2018-10-03T00:04:43.592Z,0
2018-10-03T00:05:53.724Z,0
2018-10-03T00:07:03.874Z,0
2018-10-03T00:08:14.112Z,0
2018-10-03T00:09:24.260Z,0
2018-10-03T00:10:34.414Z,0
2018-10-03T00:11:44.688Z,0
2018-10-03T00:12:54.830Z,0
2018-10-03T00:14:04.989Z,0
2018-10-03T00:15:14.889Z,0
2018-10-03T00:16:25.035Z,0
2018-10-03T00:17:35.247Z,0
2018-10-03T00:18:45.406Z,0
2018-10-03T00:19:55.552Z,0
2018-10-03T00:21:05.675Z,0
2018-10-03T00:22:16.061Z,0
2018-10-03T00:23:26.241Z,0
2018-10-03T00:24:37.408Z,0
2018-10-03T00:25:47.531Z,0
2018-10-03T00:26:57.423Z,0
2018-10-03T00:28:07.972Z,0
2018-10-03T00:29:18.104Z,0
2018-10-03T00:30:28.289Z,0
2018-10-03T00:31:38.188Z,0
2018-10-03T00:32:48.075Z,0
2018-10-03T00:33:58.436Z,0
2018-10-03T00:35:08.603Z,0
2018-10-03T00:36:18.523Z,0
2018-10-03T00:37:28.640Z,0
2018-10-03T00:38:38.350Z,0
2018-10-03T00:39:48.241Z,0
2018-10-03T00:40:58.364Z,0
2018-10-03T00:42:08.506Z,0
2018-10-03T00:43:18.434Z,0
2018-10-03T00:44:28.198Z,0
2018-10-03T00:45:38.326Z,0
2018-10-03T00:46:48.205Z,0
2018-10-03T00:47:58.337Z,0
2018-10-03T00:49:08.216Z,0
2018-10-03T00:50:18.340Z,0
2018-10-03T00:51:28.486Z,0
2018-10-03T00:52:38.628Z,0
2018-10-03T00:53:48.762Z,0
2018-10-03T00:54:58.957Z,0
2018-10-03T00:56:09.151Z,0
2018-10-03T00:57:19.417Z,0
2018-10-03T00:58:29.597Z,0
2018-10-03T00:59:39.735Z,0
2018-10-03T01:00:50.182Z,0
2018-10-03T01:02:00.332Z,0
2018-10-03T01:03:10.506Z,0
2018-10-03T01:04:20.397Z,0
2018-10-03T01:05:30.556Z,0
2018-10-03T01:06:40.786Z,0
2018-10-03T01:07:50.946Z,0
2018-10-03T01:09:01.110Z,0
2018-10-03T01:10:11.527Z,0
2018-10-03T01:11:21.665Z,0
2018-10-03T01:12:31.798Z,0
2018-10-03T01:13:41.577Z,0
2018-10-03T01:14:51.973Z,0
2018-10-03T01:16:02.132Z,0
2018-10-03T01:17:12.325Z,0
2018-10-03T01:18:22.484Z,0
2018-10-03T01:19:32.661Z,0
2018-10-03T01:20:42.821Z,0
2018-10-03T01:21:52.965Z,0
2018-10-03T01:23:03.119Z,0
2018-10-03T01:24:13.227Z,0
2018-10-03T01:25:23.358Z,0
2018-10-03T01:26:33.227Z,0
2018-10-03T01:27:43.395Z,0
2018-10-03T01:28:53.554Z,0
2018-10-03T01:30:03.940Z,0
2018-10-03T01:31:14.101Z,0
2018-10-03T01:32:24.240Z,0
2018-10-03T01:33:34.580Z,0
2018-10-03T01:34:44.436Z,0
2018-10-03T01:35:54.588Z,0
2018-10-03T01:37:04.461Z,0
2018-10-03T01:38:14.845Z,0
2018-10-03T01:39:25.014Z,0
2018-10-03T01:40:34.907Z,0
2018-10-03T01:41:45.052Z,0
2018-10-03T01:42:54.931Z,0
2018-10-03T01:44:05.070Z,0
2018-10-03T01:45:15.183Z,0
2018-10-03T01:46:25.043Z,0
2018-10-03T01:47:35.156Z,0
2018-10-03T01:48:45.285Z,0
2018-10-03T01:49:55.074Z,0
2018-10-03T01:51:05.293Z,0
2018-10-03T01:52:15.484Z,0
2018-10-03T01:53:25.399Z,0
2018-10-03T01:54:35.535Z,0
2018-10-03T01:55:45.664Z,0
2018-10-03T01:56:55.561Z,0
2018-10-03T01:58:05.517Z,0
2018-10-03T01:59:15.701Z,0
2018-10-03T02:00:25.878Z,0
2018-10-03T02:01:35.778Z,0
2018-10-03T02:02:45.562Z,0
2018-10-03T02:03:55.456Z,0
2018-10-03T02:05:05.558Z,0
2018-10-03T02:06:15.716Z,0
2018-10-03T02:07:26.058Z,0
2018-10-03T02:08:36.250Z,0
2018-10-03T02:09:46.167Z,0
2018-10-03T02:10:56.280Z,0
2018-10-03T02:12:06.397Z,0
2018-10-03T02:13:16.579Z,0
2018-10-03T02:14:26.837Z,0
2018-10-03T02:15:36.960Z,0
2018-10-03T02:16:46.846Z,0
2018-10-03T02:17:57.000Z,0
2018-10-03T02:19:07.165Z,0
2018-10-03T02:20:17.305Z,0
2018-10-03T02:21:27.557Z,0
2018-10-03T02:22:37.863Z,0
2018-10-03T02:23:49.103Z,0
2018-10-03T02:24:59.249Z,0
2018-10-03T02:26:09.127Z,0
2018-10-03T02:27:19.279Z,0
2018-10-03T02:28:29.146Z,0
2018-10-03T02:29:39.001Z,0
2018-10-03T02:30:49.160Z,0
2018-10-03T02:31:59.268Z,0
2018-10-03T02:33:09.387Z,0
2018-10-03T02:34:20.562Z,0
2018-10-03T02:35:30.993Z,0
2018-10-03T02:36:41.121Z,0
2018-10-03T02:37:51.239Z,0
2018-10-03T02:39:01.370Z,0
2018-10-03T02:40:11.568Z,0
2018-10-03T02:41:21.719Z,0
2018-10-03T02:42:31.586Z,0
2018-10-03T02:43:41.872Z,0
2018-10-03T02:44:52.080Z,0
2018-10-03T02:46:02.275Z,0
2018-10-03T02:47:12.430Z,0
2018-10-03T02:48:22.729Z,0
2018-10-03T02:49:32.868Z,0
2018-10-03T02:50:42.738Z,0
2018-10-03T02:51:52.934Z,0
2018-10-03T02:53:02.829Z,0
2018-10-03T02:54:12.949Z,0
2018-10-03T02:55:23.067Z,0
2018-10-03T02:56:33.487Z,0
2018-10-03T02:57:43.898Z,0
2018-10-03T02:58:54.018Z,0
2018-10-03T03:00:04.182Z,0
2018-10-03T03:01:14.299Z,0
2018-10-03T03:02:24.624Z,0
2018-10-03T03:03:34.803Z,0
2018-10-03T03:04:44.966Z,0
2018-10-03T03:05:55.199Z,0
2018-10-03T03:07:05.071Z,0
2018-10-03T03:08:15.232Z,0
2018-10-03T03:09:25.819Z,0
2018-10-03T03:10:35.674Z,0
2018-10-03T03:11:45.843Z,0
2018-10-03T03:12:55.976Z,0
2018-10-03T03:14:06.586Z,0
2018-10-03T03:15:16.852Z,0
2018-10-03T03:16:27.116Z,0
2018-10-03T03:17:37.318Z,0
2018-10-03T03:18:47.478Z,0
2018-10-03T03:19:57.625Z,0
2018-10-03T03:21:07.784Z,0
2018-10-03T03:22:17.914Z,0
2018-10-03T03:23:28.044Z,0
2018-10-03T03:24:38.162Z,0
2018-10-03T03:25:48.482Z,0
2018-10-03T03:26:58.745Z,0
2018-10-03T03:28:08.860Z,0
2018-10-03T03:29:19.023Z,0
2018-10-03T03:30:29.239Z,0
2018-10-03T03:31:39.445Z,0
2018-10-03T03:32:49.611Z,0
2018-10-03T03:33:59.773Z,0
2018-10-03T03:35:09.639Z,0
2018-10-03T03:36:19.817Z,0
2018-10-03T03:37:30.177Z,0
2018-10-03T03:38:40.349Z,0
2018-10-03T03:39:50.599Z,0
2018-10-03T03:41:00.822Z,0
2018-10-03T03:42:10.701Z,0
2018-10-03T03:43:20.899Z,0
2018-10-03T03:44:31.026Z,0
2018-10-03T03:45:41.176Z,0
2018-10-03T03:46:51.300Z,0
2018-10-03T03:48:01.495Z,0
2018-10-03T03:49:11.755Z,0
2018-10-03T03:50:21.968Z,0
2018-10-03T03:51:32.136Z,0
2018-10-03T03:52:42.255Z,0
2018-10-03T03:53:52.369Z,0
2018-10-03T03:55:02.500Z,0
2018-10-03T03:56:12.717Z,0
2018-10-03T03:57:22.885Z,0
2018-10-03T03:58:33.117Z,0
2018-10-03T03:59:42.976Z,0
2018-10-03T04:00:53.826Z,0
2018-10-03T04:02:03.955Z,0
2018-10-03T04:03:13.554Z,0
2018-10-03T04:04:23.342Z,0
2018-10-03T04:05:33.495Z,0
2018-10-03T04:06:43.731Z,0
2018-10-03T04:07:53.994Z,0
2018-10-03T04:09:04.143Z,0
2018-10-03T04:10:14.450Z,0
2018-10-03T04:11:24.798Z,0
2018-10-03T04:12:34.900Z,0
2018-10-03T04:13:44.966Z,0
2018-10-03T04:14:55.140Z,0
2018-10-03T04:16:05.348Z,0
2018-10-03T04:17:15.260Z,0
2018-10-03T04:18:25.423Z,0
2018-10-03T04:19:34.673Z,0
2018-10-03T04:20:44.905Z,0
2018-10-03T04:21:56.011Z,0
2018-10-03T04:23:05.944Z,0
2018-10-03T04:24:16.103Z,0
2018-10-03T04:25:25.884Z,0
2018-10-03T04:26:36.003Z,0
2018-10-03T04:27:45.890Z,0
2018-10-03T04:28:56.051Z,0
2018-10-03T04:30:06.242Z,0
2018-10-03T04:31:16.448Z,0
2018-10-03T04:32:26.718Z,0
2018-10-03T04:33:36.832Z,0
2018-10-03T04:34:46.756Z,0
2018-10-03T04:35:57.047Z,0
2018-10-03T04:37:07.165Z,0
2018-10-03T04:38:17.304Z,0
2018-10-03T04:39:27.448Z,0
2018-10-03T04:40:37.397Z,0
2018-10-03T04:41:47.549Z,0
2018-10-03T04:42:57.680Z,0
2018-10-03T04:44:07.843Z,0
2018-10-03T04:45:18.140Z,0
2018-10-03T04:46:28.125Z,0
2018-10-03T04:47:38.239Z,0
2018-10-03T04:48:48.262Z,0
2018-10-03T04:49:58.405Z,0
2018-10-03T04:51:08.516Z,0
2018-10-03T04:52:18.656Z,0
2018-10-03T04:53:28.808Z,0
2018-10-03T04:54:38.979Z,0
2018-10-03T04:55:49.141Z,0
2018-10-03T04:56:59.314Z,0
2018-10-03T04:58:09.493Z,0
2018-10-03T04:59:19.637Z,0
2018-10-03T05:00:29.811Z,0
2018-10-03T05:01:39.667Z,0
2018-10-03T05:02:50.073Z,0
2018-10-03T05:04:00.212Z,0
2018-10-03T05:05:10.344Z,0
2018-10-03T05:06:20.482Z,0
2018-10-03T05:07:30.592Z,0
2018-10-03T05:08:40.724Z,0
2018-10-03T05:09:50.868Z,0
2018-10-03T05:11:01.073Z,0
2018-10-03T05:12:11.349Z,0
2018-10-03T05:13:21.505Z,0
2018-10-03T05:14:31.642Z,5
2018-10-03T05:15:41.859Z,5
2018-10-03T05:16:52.330Z,5
2018-10-03T05:18:02.468Z,5
2018-10-03T05:19:12.650Z,5
2018-10-03T05:20:22.846Z,5
2018-10-03T05:21:33.083Z,5
2018-10-03T05:22:43.210Z,5
2018-10-03T05:23:53.331Z,10
2018-10-03T05:25:03.447Z,10
2018-10-03T05:26:13.603Z,10
2018-10-03T05:27:23.734Z,10
2018-10-03T05:28:33.601Z,10
2018-10-03T05:29:43.720Z,15
2018-10-03T05:30:54.075Z,15
2018-10-03T05:32:04.218Z,15
2018-10-03T05:33:14.595Z,15
2018-10-03T05:34:24.763Z,15
2018-10-03T05:35:34.883Z,15
2018-10-03T05:36:44.739Z,20
2018-10-03T05:37:54.871Z,20
2018-10-03T05:39:05.967Z,20
2018-10-03T05:40:16.094Z,20
2018-10-03T05:41:26.202Z,25
2018-10-03T05:42:36.560Z,25
2018-10-03T05:43:46.693Z,25
2018-10-03T05:44:56.827Z,30
2018-10-03T05:46:06.956Z,30
2018-10-03T05:47:17.137Z,30
2018-10-03T05:48:27.385Z,30
2018-10-03T05:49:37.590Z,35
2018-10-03T05:50:47.713Z,35
2018-10-03T05:51:57.985Z,35
2018-10-03T05:53:08.153Z,40
2018-10-03T05:54:18.024Z,40
2018-10-03T05:55:28.148Z,40
2018-10-03T05:56:38.040Z,40
2018-10-03T05:57:48.155Z,40
2018-10-03T05:58:58.323Z,45
2018-10-03T06:00:08.482Z,45
2018-10-03T06:01:18.847Z,45
2018-10-03T06:02:28.974Z,45
2018-10-03T06:03:39.160Z,45
2018-10-03T06:04:49.040Z,50
2018-10-03T06:05:59.167Z,45
2018-10-03T06:07:09.319Z,45
2018-10-03T06:08:19.536Z,50
2018-10-03T06:09:29.872Z,50
2018-10-03T06:10:39.731Z,50
2018-10-03T06:11:49.877Z,55
2018-10-03T06:12:59.170Z,55
2018-10-03T06:14:09.167Z,55
2018-10-03T06:15:19.397Z,60
2018-10-03T06:16:29.519Z,60
2018-10-03T06:17:39.509Z,65
2018-10-03T06:18:50.753Z,60
2018-10-03T06:20:00.378Z,55
2018-10-03T06:21:10.238Z,45
2018-10-03T06:22:20.403Z,45
2018-10-03T06:23:30.045Z,45
2018-10-03T06:24:40.168Z,50
2018-10-03T06:25:50.386Z,55
2018-10-03T06:27:00.006Z,60
2018-10-03T06:28:09.573Z,55
2018-10-03T06:29:19.122Z,60
2018-10-03T06:30:28.686Z,65
2018-10-03T06:31:38.440Z,65
2018-10-03T06:32:48.307Z,70
2018-10-03T06:33:58.166Z,75
2018-10-03T06:35:08.041Z,80
2018-10-03T06:36:18.220Z,75
2018-10-03T06:37:28.358Z,70
2018-10-03T06:38:38.531Z,70
2018-10-03T06:39:48.671Z,65
2018-10-03T06:40:58.539Z,65
2018-10-03T06:42:08.736Z,65
2018-10-03T06:43:18.674Z,65
2018-10-03T06:44:28.588Z,70
2018-10-03T06:45:39.100Z,85
2018-10-03T06:46:49.360Z,85
2018-10-03T06:47:59.628Z,90
2018-10-03T06:49:09.775Z,85
2018-10-03T06:50:19.698Z,95
2018-10-03T06:51:29.907Z,100
2018-10-03T06:52:39.619Z,100
2018-10-03T06:53:49.720Z,105
2018-10-03T06:54:59.913Z,105
2018-10-03T06:56:10.066Z,110
2018-10-03T06:57:20.274Z,120
2018-10-03T06:58:30.433Z,125
2018-10-03T06:59:40.581Z,125
2018-10-03T07:00:50.713Z,120
2018-10-03T07:02:02.065Z,100
2018-10-03T07:03:12.223Z,110
2018-10-03T07:04:22.425Z,110
2018-10-03T07:05:32.588Z,135
2018-10-03T07:06:42.780Z,140
2018-10-03T07:07:52.639Z,140
2018-10-03T07:09:02.843Z,140
2018-10-03T07:10:12.980Z,95
2018-10-03T07:11:23.271Z,130
2018-10-03T07:12:33.416Z,105
2018-10-03T07:13:43.642Z,150
2018-10-03T07:14:53.768Z,150
2018-10-03T07:16:03.945Z,145
2018-10-03T07:17:14.092Z,180
2018-10-03T07:18:24.239Z,185
2018-10-03T07:19:34.421Z,150
2018-10-03T07:20:44.557Z,160
2018-10-03T07:21:54.715Z,170
2018-10-03T07:23:04.878Z,130
2018-10-03T07:24:14.747Z,100
2018-10-03T07:25:24.915Z,110
2018-10-03T07:26:35.201Z,165
2018-10-03T07:27:45.403Z,180
2018-10-03T07:28:55.783Z,225
2018-10-03T07:30:06.114Z,395
2018-10-03T07:31:16.244Z,490
2018-10-03T07:32:26.479Z,165
2018-10-03T07:33:36.630Z,215
2018-10-03T07:34:46.760Z,200
2018-10-03T07:35:56.637Z,290
2018-10-03T07:37:06.762Z,325
2018-10-03T07:38:16.893Z,255
2018-10-03T07:39:27.086Z,330
2018-10-03T07:40:37.426Z,235
2018-10-03T07:41:47.551Z,220
2018-10-03T07:42:57.768Z,195
2018-10-03T07:44:08.368Z,230
2018-10-03T07:45:18.264Z,240
2018-10-03T07:46:28.448Z,175
2018-10-03T07:47:38.591Z,190
2018-10-03T07:48:48.764Z,220
2018-10-03T07:49:58.903Z,175
2018-10-03T07:51:09.048Z,155
2018-10-03T07:52:19.231Z,185
2018-10-03T07:53:29.531Z,215
2018-10-03T07:54:39.689Z,240
2018-10-03T07:55:49.831Z,160
2018-10-03T07:56:59.995Z,195
2018-10-03T07:58:10.175Z,215
2018-10-03T07:59:20.496Z,210
2018-10-03T08:00:30.628Z,170
2018-10-03T08:01:40.836Z,190
2018-10-03T08:02:51.104Z,225
2018-10-03T08:04:01.353Z,230
2018-10-03T08:05:11.510Z,225
2018-10-03T08:06:21.628Z,265
2018-10-03T08:07:31.865Z,305
2018-10-03T08:08:42.127Z,685
2018-10-03T08:09:51.783Z,345
2018-10-03T08:11:02.434Z,240
2018-10-03T08:12:12.779Z,260
2018-10-03T08:13:23.110Z,270
2018-10-03T08:14:33.303Z,265
2018-10-03T08:15:43.495Z,245
2018-10-03T08:16:53.696Z,195
2018-10-03T08:18:04.938Z,175
2018-10-03T08:19:15.201Z,155
2018-10-03T08:20:25.406Z,175
2018-10-03T08:21:35.582Z,210
2018-10-03T08:22:45.757Z,180
2018-10-03T08:23:55.943Z,195
2018-10-03T08:25:06.184Z,165
2018-10-03T08:26:16.505Z,130
2018-10-03T08:27:26.711Z,135
2018-10-03T08:28:36.961Z,185
2018-10-03T08:29:47.173Z,205
2018-10-03T08:30:57.432Z,215
2018-10-03T08:32:07.732Z,195
2018-10-03T08:33:18.338Z,165
2018-10-03T08:34:27.283Z,125
2018-10-03T08:35:37.420Z,110
2018-10-03T08:36:47.716Z,110
2018-10-03T08:37:57.876Z,110
2018-10-03T08:39:08.057Z,130
2018-10-03T08:40:18.035Z,120
2018-10-03T08:41:28.528Z,130
2018-10-03T08:42:38.712Z,190
2018-10-03T08:43:48.526Z,205
2018-10-03T08:44:58.698Z,150
2018-10-03T08:46:08.899Z,145
2018-10-03T08:47:19.095Z,120
2018-10-03T08:48:29.283Z,155
2018-10-03T08:49:39.504Z,130
2018-10-03T08:50:49.439Z,125
2018-10-03T08:52:00.164Z,150
2018-10-03T08:53:10.754Z,155
2018-10-03T08:54:20.925Z,180
2018-10-03T08:55:31.094Z,205
2018-10-03T08:56:41.766Z,190
2018-10-03T08:57:51.694Z,200
2018-10-03T08:59:01.886Z,205
2018-10-03T09:00:12.091Z,235
2018-10-03T09:01:22.338Z,265
2018-10-03T09:02:32.708Z,225
2018-10-03T09:03:42.745Z,230
2018-10-03T09:04:52.706Z,175
2018-10-03T09:06:02.947Z,150
2018-10-03T09:07:13.340Z,165
2018-10-03T09:08:23.557Z,150
2018-10-03T09:09:33.806Z,105
2018-10-03T09:10:44.018Z,110
2018-10-03T09:11:54.220Z,95
2018-10-03T09:13:04.441Z,100
2018-10-03T09:14:14.118Z,120
2018-10-03T09:15:24.443Z,125
2018-10-03T09:16:34.621Z,130
2018-10-03T09:17:44.991Z,115
2018-10-03T09:18:55.373Z,145
2018-10-03T09:20:06.609Z,120
2018-10-03T09:21:16.924Z,135
2018-10-03T09:22:27.188Z,175
2018-10-03T09:23:37.080Z,180
2018-10-03T09:24:47.230Z,150
2018-10-03T09:25:57.642Z,135
2018-10-03T09:27:08.096Z,160
2018-10-03T09:28:18.583Z,195
2018-10-03T09:29:28.912Z,195
2018-10-03T09:30:39.155Z,190
2018-10-03T09:31:49.316Z,190
2018-10-03T09:32:59.486Z,210
2018-10-03T09:34:09.686Z,285
2018-10-03T09:35:19.855Z,385
2018-10-03T09:36:29.776Z,370
2018-10-03T09:37:40.030Z,330
2018-10-03T09:38:50.160Z,350
2018-10-03T09:40:00.331Z,350
2018-10-03T09:41:10.492Z,335
2018-10-03T09:42:21.839Z,415
2018-10-03T09:43:31.832Z,255
2018-10-03T09:44:42.628Z,275
2018-10-03T09:45:52.917Z,340
2018-10-03T09:47:03.157Z,285
2018-10-03T09:48:13.314Z,280
2018-10-03T09:49:23.474Z,355
2018-10-03T09:50:33.657Z,500
2018-10-03T09:51:43.844Z,1705
2018-10-03T09:52:54.048Z,530
2018-10-03T09:54:03.952Z,370
2018-10-03T09:55:14.013Z,255
2018-10-03T09:56:24.197Z,180
2018-10-03T09:57:34.410Z,200
2018-10-03T09:58:44.215Z,200
2018-10-03T09:59:54.354Z,180
2018-10-03T10:01:04.891Z,185
2018-10-03T10:02:14.819Z,250
2018-10-03T10:03:24.983Z,315
2018-10-03T10:04:35.169Z,455
2018-10-03T10:05:45.444Z,1830
2018-10-03T10:06:55.621Z,540
2018-10-03T10:08:05.888Z,305
2018-10-03T10:09:16.135Z,205
2018-10-03T10:10:26.404Z,155
2018-10-03T10:11:38.016Z,230
2018-10-03T10:12:48.621Z,225
2018-10-03T10:13:58.769Z,235
2018-10-03T10:15:08.941Z,355
2018-10-03T10:16:19.126Z,240
2018-10-03T10:17:29.623Z,255
2018-10-03T10:18:39.801Z,605
2018-10-03T10:19:50.058Z,420
2018-10-03T10:21:00.734Z,290
2018-10-03T10:22:10.622Z,195
2018-10-03T10:23:20.798Z,105
2018-10-03T10:24:30.687Z,80
2018-10-03T10:25:40.937Z,115
2018-10-03T10:26:51.313Z,180
2018-10-03T10:28:01.545Z,245
2018-10-03T10:29:11.977Z,300
2018-10-03T10:30:22.196Z,230
2018-10-03T10:31:32.394Z,390
2018-10-03T10:32:43.205Z,1680
2018-10-03T10:33:53.572Z,1660
2018-10-03T10:35:03.490Z,1660
2018-10-03T10:36:13.721Z,1680
2018-10-03T10:37:24.001Z,1605
2018-10-03T10:38:34.277Z,1530
2018-10-03T10:39:44.465Z,1485
2018-10-03T10:40:55.444Z,1615
2018-10-03T10:42:05.714Z,1625
2018-10-03T10:43:16.020Z,1765
2018-10-03T10:44:26.394Z,715
2018-10-03T10:45:36.809Z,460
2018-10-03T10:46:47.536Z,440
2018-10-03T10:47:57.549Z,425
2018-10-03T10:49:07.718Z,345
2018-10-03T10:50:18.393Z,330
2018-10-03T10:51:28.921Z,440
2018-10-03T10:52:38.856Z,340
2018-10-03T10:53:49.070Z,290
2018-10-03T10:54:59.279Z,340
2018-10-03T10:56:09.482Z,1790
2018-10-03T10:57:19.657Z,1840
2018-10-03T10:58:29.896Z,455
2018-10-03T10:59:40.572Z,1880
2018-10-03T11:00:51.021Z,345
2018-10-03T11:02:01.318Z,295
2018-10-03T11:03:11.223Z,285
2018-10-03T11:04:21.235Z,385
2018-10-03T11:05:31.577Z,580
2018-10-03T11:06:42.194Z,1940
2018-10-03T11:07:52.504Z,1335
2018-10-03T11:09:02.365Z,1735
2018-10-03T11:10:12.549Z,1320
2018-10-03T11:11:23.057Z,1645
2018-10-03T11:12:33.060Z,455
2018-10-03T11:13:43.515Z,250
2018-10-03T11:14:53.751Z,210
2018-10-03T11:16:04.067Z,130
2018-10-03T11:17:14.385Z,85
2018-10-03T11:18:24.594Z,100
2018-10-03T11:19:34.839Z,130
2018-10-03T11:20:45.258Z,180
2018-10-03T11:21:55.704Z,225
2018-10-03T11:23:05.874Z,265
2018-10-03T11:24:16.188Z,290
2018-10-03T11:25:26.412Z,390
2018-10-03T11:26:36.596Z,630
2018-10-03T11:27:46.989Z,1380
2018-10-03T11:28:57.334Z,1705
2018-10-03T11:30:07.346Z,1340
2018-10-03T11:31:17.549Z,1580
2018-10-03T11:32:27.900Z,1545
2018-10-03T11:33:38.078Z,1545
2018-10-03T11:34:48.276Z,1610
2018-10-03T11:35:58.460Z,1605
2018-10-03T11:37:08.632Z,1475
2018-10-03T11:38:19.203Z,1475
2018-10-03T11:39:29.422Z,1600
2018-10-03T11:40:39.629Z,1550
2018-10-03T11:41:49.813Z,1635
2018-10-03T11:43:00.006Z,1555
2018-10-03T11:44:10.043Z,1360
2018-10-03T11:45:20.079Z,1550
2018-10-03T11:46:30.310Z,1570
2018-10-03T11:47:40.930Z,1570
2018-10-03T11:48:51.165Z,1590
2018-10-03T11:50:01.440Z,1595
2018-10-03T11:51:11.613Z,1440
2018-10-03T11:52:21.786Z,1600
2018-10-03T11:53:32.082Z,670
2018-10-03T11:54:42.013Z,955
2018-10-03T11:55:52.395Z,1700
2018-10-03T11:57:02.749Z,480
2018-10-03T11:58:13.173Z,1580
2018-10-03T11:59:23.529Z,325
2018-10-03T12:00:33.721Z,460
2018-10-03T12:01:43.689Z,540
2018-10-03T12:02:54.678Z,330
2018-10-03T12:04:05.887Z,300
2018-10-03T12:05:15.431Z,350
2018-10-03T12:06:26.096Z,330
2018-10-03T12:07:36.846Z,525
2018-10-03T12:08:47.015Z,390
2018-10-03T12:09:57.204Z,470
2018-10-03T12:11:07.480Z,635
2018-10-03T12:12:17.712Z,665
2018-10-03T12:13:27.933Z,830
2018-10-03T12:14:38.143Z,695
2018-10-03T12:15:48.332Z,775
2018-10-03T12:16:58.573Z,675
2018-10-03T12:18:09.107Z,625
2018-10-03T12:19:19.478Z,655
2018-10-03T12:20:29.648Z,605
2018-10-03T12:21:40.871Z,690
2018-10-03T12:22:51.091Z,490
2018-10-03T12:24:01.017Z,535
2018-10-03T12:25:11.461Z,565
2018-10-03T12:26:21.692Z,505
2018-10-03T12:27:32.040Z,745
2018-10-03T12:28:42.395Z,550
2018-10-03T12:29:52.570Z,1080
2018-10-03T12:31:02.565Z,1380
2018-10-03T12:32:12.794Z,1395
2018-10-03T12:33:23.275Z,1285
2018-10-03T12:34:33.547Z,1370
2018-10-03T12:35:43.758Z,1260
2018-10-03T12:36:53.988Z,1345
2018-10-03T12:38:04.002Z,1380
2018-10-03T12:39:14.261Z,1415
2018-10-03T12:40:24.353Z,1375
2018-10-03T12:41:34.765Z,1335
2018-10-03T12:42:44.763Z,1315
2018-10-03T12:43:55.111Z,1375
2018-10-03T12:45:05.721Z,1050
2018-10-03T12:46:15.965Z,1525
2018-10-03T12:47:26.403Z,1580
2018-10-03T12:48:36.602Z,790
2018-10-03T12:49:46.844Z,615
2018-10-03T12:50:57.254Z,595
2018-10-03T12:52:07.659Z,795
2018-10-03T12:53:17.464Z,830
2018-10-03T12:54:27.656Z,525
2018-10-03T12:55:37.928Z,435
2018-10-03T12:56:48.201Z,320
2018-10-03T12:57:58.817Z,295
2018-10-03T12:59:09.004Z,375
2018-10-03T13:00:19.210Z,140
2018-10-03T13:01:30.052Z,75
2018-10-03T13:02:40.217Z,85
2018-10-03T13:03:50.419Z,80
2018-10-03T13:05:00.723Z,95
2018-10-03T13:06:11.020Z,100
2018-10-03T13:07:21.226Z,110
2018-10-03T13:08:31.395Z,135
2018-10-03T13:09:41.569Z,175
2018-10-03T13:10:51.761Z,210
2018-10-03T13:12:01.716Z,230
2018-10-03T13:13:11.609Z,260
2018-10-03T13:14:22.188Z,325
2018-10-03T13:15:32.066Z,345
2018-10-03T13:16:42.516Z,330
2018-10-03T13:17:53.669Z,310
2018-10-03T13:19:03.918Z,275
2018-10-03T13:20:13.942Z,280
2018-10-03T13:21:24.160Z,355
2018-10-03T13:22:34.452Z,480
2018-10-03T13:23:44.680Z,800
2018-10-03T13:24:54.922Z,1210
2018-10-03T13:26:05.136Z,310
2018-10-03T13:27:15.386Z,360
2018-10-03T13:28:25.609Z,280
2018-10-03T13:29:35.799Z,1220
2018-10-03T13:30:46.486Z,310
2018-10-03T13:31:56.741Z,225
2018-10-03T13:33:06.668Z,245
2018-10-03T13:34:16.875Z,255
2018-10-03T13:35:27.038Z,295
2018-10-03T13:36:37.308Z,345
2018-10-03T13:37:47.583Z,370
2018-10-03T13:38:57.904Z,675
2018-10-03T13:40:08.143Z,375
2018-10-03T13:41:18.451Z,315
2018-10-03T13:42:28.836Z,265
2018-10-03T13:43:39.059Z,220
2018-10-03T13:44:49.232Z,155
2018-10-03T13:45:59.500Z,105
2018-10-03T13:47:09.701Z,85
2018-10-03T13:48:19.916Z,270
2018-10-03T13:49:30.150Z,145
2018-10-03T13:50:40.300Z,115
2018-10-03T13:51:50.509Z,255
2018-10-03T13:53:00.711Z,375
2018-10-03T13:54:10.544Z,310
2018-10-03T13:55:20.422Z,270
2018-10-03T13:56:30.889Z,200
2018-10-03T13:57:41.495Z,145
2018-10-03T13:58:51.747Z,110
2018-10-03T14:00:01.711Z,80
2018-10-03T14:01:11.673Z,45
2018-10-03T14:02:21.897Z,35
2018-10-03T14:03:32.117Z,45
2018-10-03T14:04:42.215Z,55
2018-10-03T14:05:52.623Z,75
2018-10-03T14:07:02.932Z,90
2018-10-03T14:08:13.121Z,120
2018-10-03T14:09:23.031Z,155
2018-10-03T14:10:32.954Z,225
2018-10-03T14:11:43.300Z,435
2018-10-03T14:12:53.461Z,1115
2018-10-03T14:14:03.382Z,1195
2018-10-03T14:15:13.598Z,1095
2018-10-03T14:16:23.778Z,545
2018-10-03T14:17:33.995Z,385
2018-10-03T14:18:44.976Z,355
2018-10-03T14:19:55.221Z,980
2018-10-03T14:21:05.175Z,910
2018-10-03T14:22:15.380Z,950
2018-10-03T14:23:25.184Z,930
2018-10-03T14:24:36.746Z,935
2018-10-03T14:25:46.930Z,885
2018-10-03T14:26:57.363Z,800
2018-10-03T14:28:07.138Z,800
2018-10-03T14:29:17.454Z,335
2018-10-03T14:30:27.700Z,710
2018-10-03T14:31:38.893Z,725
2018-10-03T14:32:49.219Z,785
2018-10-03T14:34:00.693Z,655
2018-10-03T14:35:11.175Z,680
2018-10-03T14:36:22.334Z,185
2018-10-03T14:37:32.574Z,155
2018-10-03T14:38:42.822Z,135
2018-10-03T14:39:53.832Z,125
2018-10-03T14:41:03.890Z,150
2018-10-03T14:42:14.070Z,135
2018-10-03T14:43:24.579Z,130
2018-10-03T14:44:34.845Z,105
2018-10-03T14:45:45.069Z,90
2018-10-03T14:46:55.484Z,70
2018-10-03T14:48:05.664Z,75
2018-10-03T14:49:15.852Z,85
2018-10-03T14:50:25.861Z,70
2018-10-03T14:51:36.079Z,55
2018-10-03T14:52:47.019Z,45
2018-10-03T14:53:57.182Z,45
2018-10-03T14:55:07.024Z,50
2018-10-03T14:56:17.250Z,85
2018-10-03T14:57:27.882Z,130
2018-10-03T14:58:38.758Z,180
2018-10-03T14:59:49.060Z,160
2018-10-03T15:00:59.351Z,150
2018-10-03T15:02:09.542Z,135
2018-10-03T15:03:19.742Z,90
2018-10-03T15:04:29.976Z,75
2018-10-03T15:05:39.935Z,90
2018-10-03T15:06:50.132Z,85
2018-10-03T15:08:00.309Z,75
2018-10-03T15:09:10.566Z,80
2018-10-03T15:10:20.737Z,105
2018-10-03T15:11:31.972Z,115
2018-10-03T15:12:42.394Z,145
2018-10-03T15:13:52.578Z,130
2018-10-03T15:15:02.733Z,95
2018-10-03T15:16:12.915Z,90
2018-10-03T15:17:23.117Z,85
2018-10-03T15:18:32.839Z,100
2018-10-03T15:19:43.106Z,110
2018-10-03T15:20:52.953Z,140
2018-10-03T15:22:03.249Z,160
2018-10-03T15:23:13.703Z,170
2018-10-03T15:24:23.206Z,325
2018-10-03T15:25:33.527Z,490
2018-10-03T15:26:43.753Z,460
2018-10-03T15:27:53.938Z,445
2018-10-03T15:29:04.239Z,415
2018-10-03T15:30:14.797Z,375
2018-10-03T15:31:25.139Z,200
2018-10-03T15:32:35.433Z,125
2018-10-03T15:33:45.272Z,115
2018-10-03T15:34:55.517Z,110
2018-10-03T15:36:05.710Z,100
2018-10-03T15:37:15.971Z,95
2018-10-03T15:38:26.195Z,90
2018-10-03T15:39:36.463Z,90
2018-10-03T15:40:46.715Z,90
2018-10-03T15:41:56.926Z,85
2018-10-03T15:43:07.393Z,80
2018-10-03T15:44:17.611Z,75
2018-10-03T15:45:27.849Z,75
2018-10-03T15:46:38.048Z,70
2018-10-03T15:47:48.289Z,70
2018-10-03T15:48:58.526Z,65
2018-10-03T15:50:08.905Z,65
2018-10-03T15:51:18.638Z,65
2018-10-03T15:52:28.870Z,65
2018-10-03T15:53:39.029Z,65
2018-10-03T15:54:48.972Z,65
2018-10-03T15:55:59.020Z,65
2018-10-03T15:57:09.195Z,65
2018-10-03T15:58:19.429Z,65
2018-10-03T15:59:29.823Z,65
2018-10-03T16:00:40.222Z,60
2018-10-03T16:01:50.545Z,60
2018-10-03T16:03:00.722Z,55
2018-10-03T16:04:10.960Z,55
2018-10-03T16:05:20.868Z,55
2018-10-03T16:06:31.067Z,50
2018-10-03T16:07:41.295Z,50
2018-10-03T16:08:51.466Z,45
2018-10-03T16:10:01.469Z,45
2018-10-03T16:11:11.715Z,40
2018-10-03T16:12:21.952Z,40
2018-10-03T16:13:32.319Z,40
2018-10-03T16:14:42.275Z,35
2018-10-03T16:15:52.737Z,35
2018-10-03T16:17:02.950Z,35
2018-10-03T16:18:13.183Z,30
2018-10-03T16:19:23.362Z,30
2018-10-03T16:20:33.770Z,30
2018-10-03T16:21:44.086Z,25
2018-10-03T16:22:54.082Z,25
2018-10-03T16:24:04.447Z,25
2018-10-03T16:25:14.432Z,25
2018-10-03T16:26:25.409Z,20
2018-10-03T16:27:35.895Z,20
2018-10-03T16:28:46.106Z,15
2018-10-03T16:29:56.296Z,15
2018-10-03T16:31:06.469Z,15
2018-10-03T16:32:16.737Z,15